This is the latest recevied weather packets stored in our database for station/object OK5TVR-12. If no packets are shown the sender has not sent any weather packets the latest 10 day(s).
| Time | Temp. | Humidity | Pressure | Rain* | Wind** | Luminosity | Snow |
|---|---|---|---|---|---|---|---|
| 1787661817 | 19.44° C | 43% | 1014.7 hPa | 0 mm | - | - | - |
| 1787661812 | 19.44° C | 43% | 1014.7 hPa | 0 mm | - | - | - |
| 1787661812 | 19.44° C | 43% | 1014.7 hPa | 0 mm | - | - | - |
| 1787660917 | 21.11° C | 40% | 1014.6 hPa | 0 mm | - | - | - |
| 1787660917 | 21.11° C | 40% | 1014.6 hPa | 0 mm | - | - | - |
| 1787660912 | 21.11° C | 40% | 1014.6 hPa | 0 mm | - | - | - |
| 1787660912 | 21.11° C | 40% | 1014.6 hPa | 0 mm | - | - | - |
| 1787660017 | 19.44° C | 43% | 1014.5 hPa | 0 mm | - | - | - |
| 1787660017 | 19.44° C | 43% | 1014.5 hPa | 0 mm | - | - | - |
| 1787660012 | 19.44° C | 43% | 1014.5 hPa | 0 mm | - | - | - |
| 1787660012 | 19.44° C | 43% | 1014.5 hPa | 0 mm | - | - | - |
| 1787660012 | 19.44° C | 43% | 1014.5 hPa | 0 mm | - | - | - |
| 1787659117 | 18.33° C | 45% | 1014.2 hPa | 0 mm | - | - | - |
| 1787659112 | 18.33° C | 45% | 1014.2 hPa | 0 mm | - | - | - |
| 1787659112 | 18.33° C | 45% | 1014.2 hPa | 0 mm | - | - | - |
| 1787659112 | 18.33° C | 45% | 1014.2 hPa | 0 mm | - | - | - |
| 1787658217 | 19.44° C | 43% | 1014.4 hPa | 0 mm | - | - | - |
| 1787658217 | 19.44° C | 43% | 1014.4 hPa | 0 mm | - | - | - |
| 1787658212 | 19.44° C | 43% | 1014.4 hPa | 0 mm | - | - | - |
| 1787658212 | 19.44° C | 43% | 1014.4 hPa | 0 mm | - | - | - |
| 1787657317 | 17.78° C | 47% | 1014.6 hPa | 0 mm | - | - | - |
| 1787657317 | 17.78° C | 47% | 1014.6 hPa | 0 mm | - | - | - |
| 1787657312 | 17.78° C | 47% | 1014.6 hPa | 0 mm | - | - | - |
| 1787657312 | 17.78° C | 47% | 1014.6 hPa | 0 mm | - | - | - |
| 1787656417 | 17.78° C | 47% | 1014.7 hPa | 0 mm | - | - | - |
* Rain latest hour (hover to see other rain measurements)
** Current wind speed in m/s (hover to see current wind gust speed)